sensor_id;sensor_type;location;lat;lon;timestamp;P1;durP1;ratioP1;P2;durP2;ratioP2
32196;SDS011;18697;42.770;23.400;2022-07-29T00:01:19;7.35;;;4.28;;
32196;SDS011;18697;42.770;23.400;2022-07-29T00:03:44;4.82;;;3.90;;
32196;SDS011;18697;42.770;23.400;2022-07-29T00:06:10;5.65;;;4.00;;
32196;SDS011;18697;42.770;23.400;2022-07-29T00:08:35;5.35;;;3.83;;
32196;SDS011;18697;42.770;23.400;2022-07-29T00:11:01;7.18;;;4.88;;
32196;SDS011;18697;42.770;23.400;2022-07-29T00:13:27;4.45;;;3.95;;
32196;SDS011;18697;42.770;23.400;2022-07-29T00:15:52;5.22;;;3.90;;
32196;SDS011;18697;42.770;23.400;2022-07-29T00:18:17;4.57;;;3.92;;
32196;SDS011;18697;42.770;23.400;2022-07-29T00:20:43;4.13;;;3.72;;
32196;SDS011;18697;42.770;23.400;2022-07-29T00:23:08;5.47;;;4.05;;
32196;SDS011;18697;42.770;23.400;2022-07-29T00:25:34;4.35;;;3.53;;
32196;SDS011;18697;42.770;23.400;2022-07-29T00:27:59;7.15;;;4.20;;
32196;SDS011;18697;42.770;23.400;2022-07-29T00:30:24;5.45;;;4.10;;
32196;SDS011;18697;42.770;23.400;2022-07-29T00:32:50;5.25;;;4.22;;
32196;SDS011;18697;42.770;23.400;2022-07-29T00:35:15;5.20;;;4.18;;
32196;SDS011;18697;42.770;23.400;2022-07-29T00:37:59;5.47;;;3.83;;
32196;SDS011;18697;42.770;23.400;2022-07-29T00:40:24;6.50;;;3.92;;
32196;SDS011;18697;42.770;23.400;2022-07-29T00:42:50;4.93;;;3.80;;
32196;SDS011;18697;42.770;23.400;2022-07-29T00:45:17;3.97;;;3.35;;
32196;SDS011;18697;42.770;23.400;2022-07-29T00:47:43;3.85;;;3.42;;
32196;SDS011;18697;42.770;23.400;2022-07-29T00:50:09;3.92;;;3.25;;
32196;SDS011;18697;42.770;23.400;2022-07-29T00:52:37;5.22;;;4.05;;
32196;SDS011;18697;42.770;23.400;2022-07-29T00:55:03;4.00;;;3.60;;
32196;SDS011;18697;42.770;23.400;2022-07-29T00:57:30;7.10;;;3.90;;
32196;SDS011;18697;42.770;23.400;2022-07-29T00:59:55;5.57;;;4.07;;
32196;SDS011;18697;42.770;23.400;2022-07-29T01:02:21;4.53;;;4.03;;
32196;SDS011;18697;42.770;23.400;2022-07-29T01:04:46;4.95;;;3.75;;
32196;SDS011;18697;42.770;23.400;2022-07-29T01:07:12;4.57;;;3.90;;
32196;SDS011;18697;42.770;23.400;2022-07-29T01:09:37;4.65;;;3.55;;
32196;SDS011;18697;42.770;23.400;2022-07-29T01:12:04;4.13;;;3.35;;
32196;SDS011;18697;42.770;23.400;2022-07-29T01:14:30;4.10;;;3.63;;
32196;SDS011;18697;42.770;23.400;2022-07-29T01:17:00;6.57;;;4.05;;
32196;SDS011;18697;42.770;23.400;2022-07-29T01:19:47;4.38;;;3.50;;
32196;SDS011;18697;42.770;23.400;2022-07-29T01:22:28;3.20;;;2.95;;
32196;SDS011;18697;42.770;23.400;2022-07-29T01:30:49;5.43;;;3.40;;
32196;SDS011;18697;42.770;23.400;2022-07-29T01:33:17;4.07;;;3.28;;
32196;SDS011;18697;42.770;23.400;2022-07-29T01:36:09;5.07;;;3.50;;
32196;SDS011;18697;42.770;23.400;2022-07-29T01:38:39;4.03;;;3.63;;
32196;SDS011;18697;42.770;23.400;2022-07-29T01:43:42;3.58;;;3.22;;
32196;SDS011;18697;42.770;23.400;2022-07-29T01:46:14;5.18;;;3.40;;
32196;SDS011;18697;42.770;23.400;2022-07-29T01:48:51;3.85;;;3.40;;
32196;SDS011;18697;42.770;23.400;2022-07-29T01:51:31;6.82;;;3.63;;
32196;SDS011;18697;42.770;23.400;2022-07-29T01:54:04;5.25;;;3.50;;
32196;SDS011;18697;42.770;23.400;2022-07-29T01:56:35;4.00;;;3.60;;
32196;SDS011;18697;42.770;23.400;2022-07-29T01:59:03;3.83;;;3.42;;
32196;SDS011;18697;42.770;23.400;2022-07-29T02:01:32;3.50;;;3.20;;
32196;SDS011;18697;42.770;23.400;2022-07-29T02:04:01;3.63;;;3.28;;
32196;SDS011;18697;42.770;23.400;2022-07-29T02:06:28;4.22;;;3.83;;
32196;SDS011;18697;42.770;23.400;2022-07-29T02:08:57;3.60;;;2.95;;
32196;SDS011;18697;42.770;23.400;2022-07-29T02:11:24;4.35;;;3.95;;
32196;SDS011;18697;42.770;23.400;2022-07-29T02:13:49;4.15;;;3.42;;
32196;SDS011;18697;42.770;23.400;2022-07-29T02:16:20;4.15;;;3.28;;
32196;SDS011;18697;42.770;23.400;2022-07-29T02:18:48;5.10;;;3.47;;
32196;SDS011;18697;42.770;23.400;2022-07-29T02:21:15;3.72;;;3.28;;
32196;SDS011;18697;42.770;23.400;2022-07-29T02:23:45;4.78;;;3.63;;
32196;SDS011;18697;42.770;23.400;2022-07-29T02:26:12;3.47;;;3.00;;
32196;SDS011;18697;42.770;23.400;2022-07-29T02:28:38;6.32;;;3.72;;
32196;SDS011;18697;42.770;23.400;2022-07-29T02:31:05;4.15;;;3.50;;
32196;SDS011;18697;42.770;23.400;2022-07-29T02:33:32;3.78;;;3.33;;
32196;SDS011;18697;42.770;23.400;2022-07-29T02:35:58;6.28;;;4.10;;
32196;SDS011;18697;42.770;23.400;2022-07-29T02:38:27;4.93;;;3.38;;
32196;SDS011;18697;42.770;23.400;2022-07-29T02:41:13;4.25;;;3.05;;
32196;SDS011;18697;42.770;23.400;2022-07-29T02:43:41;3.70;;;2.95;;
32196;SDS011;18697;42.770;23.400;2022-07-29T02:46:11;4.95;;;3.53;;
32196;SDS011;18697;42.770;23.400;2022-07-29T02:48:48;3.75;;;3.45;;
32196;SDS011;18697;42.770;23.400;2022-07-29T02:51:23;5.70;;;3.45;;
32196;SDS011;18697;42.770;23.400;2022-07-29T02:53:54;5.40;;;3.50;;
32196;SDS011;18697;42.770;23.400;2022-07-29T02:56:23;6.85;;;3.95;;
32196;SDS011;18697;42.770;23.400;2022-07-29T02:58:57;4.28;;;3.63;;
32196;SDS011;18697;42.770;23.400;2022-07-29T03:01:27;5.20;;;4.22;;
32196;SDS011;18697;42.770;23.400;2022-07-29T03:03:56;4.75;;;3.53;;
32196;SDS011;18697;42.770;23.400;2022-07-29T03:06:25;4.47;;;3.75;;
32196;SDS011;18697;42.770;23.400;2022-07-29T03:08:52;5.15;;;3.72;;
32196;SDS011;18697;42.770;23.400;2022-07-29T03:11:19;8.32;;;4.65;;
32196;SDS011;18697;42.770;23.400;2022-07-29T03:13:45;5.53;;;4.50;;
32196;SDS011;18697;42.770;23.400;2022-07-29T03:16:11;5.55;;;4.32;;
32196;SDS011;18697;42.770;23.400;2022-07-29T03:18:38;5.15;;;4.07;;
32196;SDS011;18697;42.770;23.400;2022-07-29T03:21:04;7.20;;;4.32;;
32196;SDS011;18697;42.770;23.400;2022-07-29T03:23:29;7.38;;;4.32;;
32196;SDS011;18697;42.770;23.400;2022-07-29T03:25:55;5.45;;;4.43;;
32196;SDS011;18697;42.770;23.400;2022-07-29T03:28:21;5.85;;;4.07;;
32196;SDS011;18697;42.770;23.400;2022-07-29T03:30:47;4.40;;;3.65;;
32196;SDS011;18697;42.770;23.400;2022-07-29T03:33:14;4.80;;;3.75;;
32196;SDS011;18697;42.770;23.400;2022-07-29T03:35:39;4.05;;;3.33;;
32196;SDS011;18697;42.770;23.400;2022-07-29T03:38:05;3.92;;;3.53;;
32196;SDS011;18697;42.770;23.400;2022-07-29T03:40:35;4.68;;;3.85;;
32196;SDS011;18697;42.770;23.400;2022-07-29T03:43:00;4.75;;;3.65;;
32196;SDS011;18697;42.770;23.400;2022-07-29T03:45:28;3.55;;;3.25;;
32196;SDS011;18697;42.770;23.400;2022-07-29T03:47:58;5.63;;;4.07;;
32196;SDS011;18697;42.770;23.400;2022-07-29T03:50:26;6.13;;;3.67;;
32196;SDS011;18697;42.770;23.400;2022-07-29T03:52:53;5.28;;;4.10;;
32196;SDS011;18697;42.770;23.400;2022-07-29T03:55:19;4.80;;;3.80;;
32196;SDS011;18697;42.770;23.400;2022-07-29T03:57:44;6.05;;;3.45;;
32196;SDS011;18697;42.770;23.400;2022-07-29T04:00:11;8.40;;;4.28;;
32196;SDS011;18697;42.770;23.400;2022-07-29T04:02:38;4.90;;;4.10;;
32196;SDS011;18697;42.770;23.400;2022-07-29T04:05:05;4.95;;;3.42;;
32196;SDS011;18697;42.770;23.400;2022-07-29T04:07:36;5.30;;;3.97;;
32196;SDS011;18697;42.770;23.400;2022-07-29T04:10:01;5.05;;;3.95;;
32196;SDS011;18697;42.770;23.400;2022-07-29T04:12:27;11.02;;;7.50;;
32196;SDS011;18697;42.770;23.400;2022-07-29T04:14:52;13.40;;;7.95;;
32196;SDS011;18697;42.770;23.400;2022-07-29T04:17:17;8.00;;;6.40;;
32196;SDS011;18697;42.770;23.400;2022-07-29T04:19:43;9.13;;;6.07;;
32196;SDS011;18697;42.770;23.400;2022-07-29T04:22:08;5.57;;;4.60;;
32196;SDS011;18697;42.770;23.400;2022-07-29T04:24:34;6.22;;;4.45;;
32196;SDS011;18697;42.770;23.400;2022-07-29T04:26:59;5.20;;;4.25;;
32196;SDS011;18697;42.770;23.400;2022-07-29T04:29:25;7.03;;;4.00;;
32196;SDS011;18697;42.770;23.400;2022-07-29T04:31:50;7.32;;;4.57;;
32196;SDS011;18697;42.770;23.400;2022-07-29T04:34:15;5.70;;;4.50;;
32196;SDS011;18697;42.770;23.400;2022-07-29T04:36:41;6.55;;;4.70;;
32196;SDS011;18697;42.770;23.400;2022-07-29T04:39:06;5.70;;;4.13;;
32196;SDS011;18697;42.770;23.400;2022-07-29T04:41:32;5.50;;;4.60;;
32196;SDS011;18697;42.770;23.400;2022-07-29T04:43:57;6.35;;;4.20;;
32196;SDS011;18697;42.770;23.400;2022-07-29T04:46:22;5.47;;;4.55;;
32196;SDS011;18697;42.770;23.400;2022-07-29T04:48:48;6.38;;;4.60;;
32196;SDS011;18697;42.770;23.400;2022-07-29T04:51:14;4.38;;;3.85;;
32196;SDS011;18697;42.770;23.400;2022-07-29T04:53:39;5.88;;;4.28;;
32196;SDS011;18697;42.770;23.400;2022-07-29T04:56:05;4.45;;;3.97;;
32196;SDS011;18697;42.770;23.400;2022-07-29T04:58:30;5.80;;;4.10;;
32196;SDS011;18697;42.770;23.400;2022-07-29T05:00:56;5.15;;;3.65;;
32196;SDS011;18697;42.770;23.400;2022-07-29T05:03:21;5.78;;;4.15;;
32196;SDS011;18697;42.770;23.400;2022-07-29T05:05:47;5.80;;;4.65;;
32196;SDS011;18697;42.770;23.400;2022-07-29T05:08:12;5.97;;;4.07;;
32196;SDS011;18697;42.770;23.400;2022-07-29T05:10:37;6.93;;;4.20;;
32196;SDS011;18697;42.770;23.400;2022-07-29T05:13:06;4.32;;;3.85;;
32196;SDS011;18697;42.770;23.400;2022-07-29T05:15:35;5.80;;;4.43;;
32196;SDS011;18697;42.770;23.400;2022-07-29T05:18:01;7.53;;;5.88;;
32196;SDS011;18697;42.770;23.400;2022-07-29T05:20:28;6.45;;;4.93;;
32196;SDS011;18697;42.770;23.400;2022-07-29T05:22:55;5.50;;;4.68;;
32196;SDS011;18697;42.770;23.400;2022-07-29T05:25:21;7.03;;;5.03;;
32196;SDS011;18697;42.770;23.400;2022-07-29T05:27:46;7.10;;;5.07;;
32196;SDS011;18697;42.770;23.400;2022-07-29T05:30:12;5.13;;;4.38;;
32196;SDS011;18697;42.770;23.400;2022-07-29T05:32:38;8.70;;;4.75;;
32196;SDS011;18697;42.770;23.400;2022-07-29T05:35:03;4.55;;;3.70;;
32196;SDS011;18697;42.770;23.400;2022-07-29T05:37:29;3.65;;;3.35;;
32196;SDS011;18697;42.770;23.400;2022-07-29T05:39:54;7.55;;;5.50;;
32196;SDS011;18697;42.770;23.400;2022-07-29T05:42:19;5.70;;;4.25;;
32196;SDS011;18697;42.770;23.400;2022-07-29T05:44:45;4.18;;;3.78;;
32196;SDS011;18697;42.770;23.400;2022-07-29T05:47:10;4.20;;;3.65;;
32196;SDS011;18697;42.770;23.400;2022-07-29T05:49:36;4.20;;;3.55;;
32196;SDS011;18697;42.770;23.400;2022-07-29T05:52:01;3.40;;;3.10;;
32196;SDS011;18697;42.770;23.400;2022-07-29T05:54:27;5.50;;;3.70;;
32196;SDS011;18697;42.770;23.400;2022-07-29T05:56:52;2.97;;;2.60;;
32196;SDS011;18697;42.770;23.400;2022-07-29T05:59:18;2.63;;;1.98;;
32196;SDS011;18697;42.770;23.400;2022-07-29T06:01:43;3.17;;;2.05;;
32196;SDS011;18697;42.770;23.400;2022-07-29T06:04:08;3.28;;;1.92;;
32196;SDS011;18697;42.770;23.400;2022-07-29T06:06:34;3.58;;;2.10;;
32196;SDS011;18697;42.770;23.400;2022-07-29T06:09:00;2.00;;;1.80;;
32196;SDS011;18697;42.770;23.400;2022-07-29T06:11:27;2.30;;;1.90;;
32196;SDS011;18697;42.770;23.400;2022-07-29T06:13:52;3.70;;;2.42;;
32196;SDS011;18697;42.770;23.400;2022-07-29T06:16:18;2.22;;;2.00;;
32196;SDS011;18697;42.770;23.400;2022-07-29T06:18:43;2.38;;;2.17;;
32196;SDS011;18697;42.770;23.400;2022-07-29T06:21:09;3.40;;;2.25;;
32196;SDS011;18697;42.770;23.400;2022-07-29T06:23:35;2.65;;;2.10;;
32196;SDS011;18697;42.770;23.400;2022-07-29T06:26:02;1.77;;;1.65;;
32196;SDS011;18697;42.770;23.400;2022-07-29T06:28:27;2.95;;;1.67;;
32196;SDS011;18697;42.770;23.400;2022-07-29T06:30:53;3.28;;;2.40;;
32196;SDS011;18697;42.770;23.400;2022-07-29T06:33:18;1.80;;;1.70;;
32196;SDS011;18697;42.770;23.400;2022-07-29T06:35:44;2.10;;;1.92;;
32196;SDS011;18697;42.770;23.400;2022-07-29T06:38:10;3.13;;;1.80;;
32196;SDS011;18697;42.770;23.400;2022-07-29T06:40:36;1.67;;;1.48;;
32196;SDS011;18697;42.770;23.400;2022-07-29T06:43:20;5.07;;;1.45;;
32196;SDS011;18697;42.770;23.400;2022-07-29T06:45:45;1.60;;;1.50;;
32196;SDS011;18697;42.770;23.400;2022-07-29T06:48:11;2.72;;;2.08;;
32196;SDS011;18697;42.770;23.400;2022-07-29T06:50:36;2.65;;;1.45;;
32196;SDS011;18697;42.770;23.400;2022-07-29T06:53:02;1.33;;;1.23;;
32196;SDS011;18697;42.770;23.400;2022-07-29T06:55:28;1.70;;;1.60;;
32196;SDS011;18697;42.770;23.400;2022-07-29T06:57:53;4.22;;;1.70;;
32196;SDS011;18697;42.770;23.400;2022-07-29T07:00:19;2.28;;;1.67;;
32196;SDS011;18697;42.770;23.400;2022-07-29T07:02:44;1.83;;;1.70;;
32196;SDS011;18697;42.770;23.400;2022-07-29T07:05:10;1.90;;;1.80;;
32196;SDS011;18697;42.770;23.400;2022-07-29T07:07:35;5.15;;;1.77;;
32196;SDS011;18697;42.770;23.400;2022-07-29T07:10:00;3.08;;;1.73;;
32196;SDS011;18697;42.770;23.400;2022-07-29T07:12:26;2.88;;;1.80;;
32196;SDS011;18697;42.770;23.400;2022-07-29T07:14:51;1.33;;;1.23;;
32196;SDS011;18697;42.770;23.400;2022-07-29T07:17:17;1.80;;;1.70;;
32196;SDS011;18697;42.770;23.400;2022-07-29T07:19:42;2.83;;;1.50;;
32196;SDS011;18697;42.770;23.400;2022-07-29T07:22:07;1.88;;;1.77;;
32196;SDS011;18697;42.770;23.400;2022-07-29T07:24:33;2.78;;;2.08;;
32196;SDS011;18697;42.770;23.400;2022-07-29T07:26:58;2.30;;;1.52;;
32196;SDS011;18697;42.770;23.400;2022-07-29T07:29:24;5.05;;;2.20;;
32196;SDS011;18697;42.770;23.400;2022-07-29T07:31:49;2.25;;;1.83;;
32196;SDS011;18697;42.770;23.400;2022-07-29T07:34:14;2.17;;;1.80;;
32196;SDS011;18697;42.770;23.400;2022-07-29T07:36:40;4.13;;;1.65;;
32196;SDS011;18697;42.770;23.400;2022-07-29T07:39:05;2.75;;;2.17;;
32196;SDS011;18697;42.770;23.400;2022-07-29T07:41:31;2.35;;;1.73;;
32196;SDS011;18697;42.770;23.400;2022-07-29T07:43:56;2.70;;;1.65;;
32196;SDS011;18697;42.770;23.400;2022-07-29T07:46:22;1.75;;;1.65;;
32196;SDS011;18697;42.770;23.400;2022-07-29T07:48:47;3.95;;;2.00;;
32196;SDS011;18697;42.770;23.400;2022-07-29T07:51:12;2.55;;;1.70;;
32196;SDS011;18697;42.770;23.400;2022-07-29T07:53:38;3.72;;;2.38;;
32196;SDS011;18697;42.770;23.400;2022-07-29T07:56:03;1.65;;;1.55;;
32196;SDS011;18697;42.770;23.400;2022-07-29T07:58:31;2.10;;;1.77;;
32196;SDS011;18697;42.770;23.400;2022-07-29T08:00:56;2.45;;;1.98;;
32196;SDS011;18697;42.770;23.400;2022-07-29T08:03:22;1.83;;;1.70;;
32196;SDS011;18697;42.770;23.400;2022-07-29T08:05:47;2.38;;;1.95;;
32196;SDS011;18697;42.770;23.400;2022-07-29T08:08:13;2.67;;;2.33;;
32196;SDS011;18697;42.770;23.400;2022-07-29T08:10:38;1.80;;;1.63;;
32196;SDS011;18697;42.770;23.400;2022-07-29T08:13:21;2.17;;;1.83;;
32196;SDS011;18697;42.770;23.400;2022-07-29T08:15:48;3.20;;;1.60;;
32196;SDS011;18697;42.770;23.400;2022-07-29T08:18:22;2.72;;;1.80;;
32196;SDS011;18697;42.770;23.400;2022-07-29T08:20:48;2.13;;;1.88;;
32196;SDS011;18697;42.770;23.400;2022-07-29T08:23:14;1.60;;;1.50;;
32196;SDS011;18697;42.770;23.400;2022-07-29T08:25:39;1.75;;;1.65;;
32196;SDS011;18697;42.770;23.400;2022-07-29T08:28:05;2.17;;;1.65;;
32196;SDS011;18697;42.770;23.400;2022-07-29T08:30:30;1.55;;;1.45;;
32196;SDS011;18697;42.770;23.400;2022-07-29T08:32:57;1.77;;;1.67;;
32196;SDS011;18697;42.770;23.400;2022-07-29T08:35:23;1.80;;;1.70;;
32196;SDS011;18697;42.770;23.400;2022-07-29T08:37:49;1.42;;;1.33;;
32196;SDS011;18697;42.770;23.400;2022-07-29T08:40:16;1.45;;;1.35;;
32196;SDS011;18697;42.770;23.400;2022-07-29T08:42:41;1.65;;;1.48;;
32196;SDS011;18697;42.770;23.400;2022-07-29T08:45:07;1.60;;;1.50;;
32196;SDS011;18697;42.770;23.400;2022-07-29T08:47:33;1.65;;;1.50;;
32196;SDS011;18697;42.770;23.400;2022-07-29T08:50:01;1.60;;;1.50;;
32196;SDS011;18697;42.770;23.400;2022-07-29T08:52:27;1.33;;;1.23;;
32196;SDS011;18697;42.770;23.400;2022-07-29T08:54:55;1.70;;;1.60;;
32196;SDS011;18697;42.770;23.400;2022-07-29T08:57:21;1.58;;;1.48;;
32196;SDS011;18697;42.770;23.400;2022-07-29T08:59:47;2.13;;;1.52;;
32196;SDS011;18697;42.770;23.400;2022-07-29T09:02:18;2.50;;;1.90;;
32196;SDS011;18697;42.770;23.400;2022-07-29T09:04:45;3.08;;;2.10;;
32196;SDS011;18697;42.770;23.400;2022-07-29T09:07:11;2.55;;;1.23;;
32196;SDS011;18697;42.770;23.400;2022-07-29T09:09:39;7.22;;;2.15;;
32196;SDS011;18697;42.770;23.400;2022-07-29T09:12:05;2.08;;;1.65;;
32196;SDS011;18697;42.770;23.400;2022-07-29T09:14:33;1.63;;;1.50;;
32196;SDS011;18697;42.770;23.400;2022-07-29T09:16:58;4.10;;;1.40;;
32196;SDS011;18697;42.770;23.400;2022-07-29T09:21:49;2.55;;;1.23;;
32196;SDS011;18697;42.770;23.400;2022-07-29T09:24:26;1.43;;;1.33;;
32196;SDS011;18697;42.770;23.400;2022-07-29T09:27:07;1.15;;;1.10;;
32196;SDS011;18697;42.770;23.400;2022-07-29T09:29:44;1.35;;;1.25;;
32196;SDS011;18697;42.770;23.400;2022-07-29T09:32:10;1.50;;;1.30;;
32196;SDS011;18697;42.770;23.400;2022-07-29T09:34:35;1.40;;;1.10;;
32196;SDS011;18697;42.770;23.400;2022-07-29T09:37:02;1.30;;;1.20;;
32196;SDS011;18697;42.770;23.400;2022-07-29T09:39:31;5.18;;;1.45;;
32196;SDS011;18697;42.770;23.400;2022-07-29T09:42:00;1.35;;;1.25;;
32196;SDS011;18697;42.770;23.400;2022-07-29T09:44:40;1.15;;;1.10;;
32196;SDS011;18697;42.770;23.400;2022-07-29T09:47:10;1.35;;;1.17;;
32196;SDS011;18697;42.770;23.400;2022-07-29T09:50:09;1.27;;;1.00;;
32196;SDS011;18697;42.770;23.400;2022-07-29T09:52:28;1.13;;;1.08;;
32196;SDS011;18697;42.770;23.400;2022-07-29T09:55:07;1.15;;;1.08;;
32196;SDS011;18697;42.770;23.400;2022-07-29T09:57:34;1.38;;;1.27;;
32196;SDS011;18697;42.770;23.400;2022-07-29T10:00:01;2.80;;;1.05;;
32196;SDS011;18697;42.770;23.400;2022-07-29T10:02:35;1.50;;;1.30;;
32196;SDS011;18697;42.770;23.400;2022-07-29T10:05:03;1.38;;;1.27;;
32196;SDS011;18697;42.770;23.400;2022-07-29T10:07:47;1.33;;;1.00;;
32196;SDS011;18697;42.770;23.400;2022-07-29T10:10:23;1.95;;;1.05;;
32196;SDS011;18697;42.770;23.400;2022-07-29T10:12:57;1.38;;;0.90;;
32196;SDS011;18697;42.770;23.400;2022-07-29T10:15:24;1.45;;;1.20;;
32196;SDS011;18697;42.770;23.400;2022-07-29T10:17:52;0.82;;;0.82;;
32196;SDS011;18697;42.770;23.400;2022-07-29T10:20:20;1.30;;;1.20;;
32196;SDS011;18697;42.770;23.400;2022-07-29T10:22:47;1.02;;;0.90;;
32196;SDS011;18697;42.770;23.400;2022-07-29T10:25:14;1.13;;;0.90;;
32196;SDS011;18697;42.770;23.400;2022-07-29T10:27:41;1.30;;;1.00;;
32196;SDS011;18697;42.770;23.400;2022-07-29T10:30:07;1.05;;;1.05;;
32196;SDS011;18697;42.770;23.400;2022-07-29T10:41:11;1.27;;;1.17;;
32196;SDS011;18697;42.770;23.400;2022-07-29T10:46:38;2.55;;;1.42;;
32196;SDS011;18697;42.770;23.400;2022-07-29T10:54:19;1.27;;;1.17;;
32196;SDS011;18697;42.770;23.400;2022-07-29T11:05:03;4.20;;;1.42;;
32196;SDS011;18697;42.770;23.400;2022-07-29T11:07:30;1.25;;;1.15;;
32196;SDS011;18697;42.770;23.400;2022-07-29T11:15:02;2.28;;;1.63;;
32196;SDS011;18697;42.770;23.400;2022-07-29T11:18:02;2.22;;;1.60;;
32196;SDS011;18697;42.770;23.400;2022-07-29T11:23:19;1.50;;;1.40;;
32196;SDS011;18697;42.770;23.400;2022-07-29T11:28:39;2.80;;;1.95;;
32196;SDS011;18697;42.770;23.400;2022-07-29T11:31:07;2.00;;;1.90;;
32196;SDS011;18697;42.770;23.400;2022-07-29T11:33:35;1.92;;;1.80;;
32196;SDS011;18697;42.770;23.400;2022-07-29T11:36:13;2.40;;;1.60;;
32196;SDS011;18697;42.770;23.400;2022-07-29T11:38:40;1.50;;;1.40;;
32196;SDS011;18697;42.770;23.400;2022-07-29T11:41:25;3.08;;;2.45;;
32196;SDS011;18697;42.770;23.400;2022-07-29T11:43:58;1.95;;;1.73;;
32196;SDS011;18697;42.770;23.400;2022-07-29T11:46:43;1.70;;;1.60;;
32196;SDS011;18697;42.770;23.400;2022-07-29T11:49:18;2.10;;;1.58;;
32196;SDS011;18697;42.770;23.400;2022-07-29T11:51:54;3.90;;;1.63;;
32196;SDS011;18697;42.770;23.400;2022-07-29T11:54:25;2.00;;;1.80;;
32196;SDS011;18697;42.770;23.400;2022-07-29T11:56:54;1.60;;;1.38;;
32196;SDS011;18697;42.770;23.400;2022-07-29T11:59:20;7.07;;;3.38;;
32196;SDS011;18697;42.770;23.400;2022-07-29T12:01:55;5.07;;;2.45;;
32196;SDS011;18697;42.770;23.400;2022-07-29T12:04:23;4.30;;;2.60;;
32196;SDS011;18697;42.770;23.400;2022-07-29T12:06:52;2.53;;;2.17;;
32196;SDS011;18697;42.770;23.400;2022-07-29T12:09:19;2.03;;;1.83;;
32196;SDS011;18697;42.770;23.400;2022-07-29T12:11:46;2.17;;;1.98;;
32196;SDS011;18697;42.770;23.400;2022-07-29T12:16:50;2.15;;;1.63;;
32196;SDS011;18697;42.770;23.400;2022-07-29T12:19:15;4.30;;;3.28;;
32196;SDS011;18697;42.770;23.400;2022-07-29T12:24:12;2.30;;;2.05;;
32196;SDS011;18697;42.770;23.400;2022-07-29T12:26:58;2.35;;;2.10;;
32196;SDS011;18697;42.770;23.400;2022-07-29T12:29:24;1.70;;;1.60;;
32196;SDS011;18697;42.770;23.400;2022-07-29T12:31:52;1.67;;;1.58;;
32196;SDS011;18697;42.770;23.400;2022-07-29T12:34:23;1.80;;;1.70;;
32196;SDS011;18697;42.770;23.400;2022-07-29T12:36:51;2.08;;;1.80;;
32196;SDS011;18697;42.770;23.400;2022-07-29T12:39:16;3.13;;;1.98;;
32196;SDS011;18697;42.770;23.400;2022-07-29T12:41:43;2.40;;;2.17;;
32196;SDS011;18697;42.770;23.400;2022-07-29T12:44:09;1.80;;;1.70;;
32196;SDS011;18697;42.770;23.400;2022-07-29T12:46:35;2.28;;;2.03;;
32196;SDS011;18697;42.770;23.400;2022-07-29T12:49:01;2.13;;;1.92;;
32196;SDS011;18697;42.770;23.400;2022-07-29T12:54:29;1.50;;;1.40;;
32196;SDS011;18697;42.770;23.400;2022-07-29T12:56:57;1.80;;;1.70;;
32196;SDS011;18697;42.770;23.400;2022-07-29T12:59:23;2.00;;;1.80;;
32196;SDS011;18697;42.770;23.400;2022-07-29T13:01:50;1.98;;;1.80;;
32196;SDS011;18697;42.770;23.400;2022-07-29T13:04:26;4.00;;;1.73;;
32196;SDS011;18697;42.770;23.400;2022-07-29T13:09:40;1.83;;;1.60;;
32196;SDS011;18697;42.770;23.400;2022-07-29T13:12:08;2.03;;;1.70;;
32196;SDS011;18697;42.770;23.400;2022-07-29T13:14:47;3.00;;;1.92;;
32196;SDS011;18697;42.770;23.400;2022-07-29T13:17:17;2.20;;;1.80;;
32196;SDS011;18697;42.770;23.400;2022-07-29T13:19:52;2.65;;;1.95;;
32196;SDS011;18697;42.770;23.400;2022-07-29T13:22:24;1.83;;;1.73;;
32196;SDS011;18697;42.770;23.400;2022-07-29T13:24:50;1.33;;;1.23;;
32196;SDS011;18697;42.770;23.400;2022-07-29T13:27:18;1.65;;;1.55;;
32196;SDS011;18697;42.770;23.400;2022-07-29T13:29:46;1.70;;;1.60;;
32196;SDS011;18697;42.770;23.400;2022-07-29T13:32:11;1.98;;;1.88;;
32196;SDS011;18697;42.770;23.400;2022-07-29T13:34:38;1.77;;;1.67;;
32196;SDS011;18697;42.770;23.400;2022-07-29T13:37:04;1.40;;;1.30;;
32196;SDS011;18697;42.770;23.400;2022-07-29T13:39:29;2.22;;;1.73;;
32196;SDS011;18697;42.770;23.400;2022-07-29T13:41:55;1.60;;;1.50;;
32196;SDS011;18697;42.770;23.400;2022-07-29T13:44:20;1.95;;;1.80;;
32196;SDS011;18697;42.770;23.400;2022-07-29T13:46:46;2.08;;;1.77;;
32196;SDS011;18697;42.770;23.400;2022-07-29T13:49:11;4.47;;;2.10;;
32196;SDS011;18697;42.770;23.400;2022-07-29T13:51:37;3.63;;;1.25;;
32196;SDS011;18697;42.770;23.400;2022-07-29T13:54:03;4.45;;;1.77;;
32196;SDS011;18697;42.770;23.400;2022-07-29T13:56:28;1.65;;;1.55;;
32196;SDS011;18697;42.770;23.400;2022-07-29T13:58:54;1.90;;;1.80;;
32196;SDS011;18697;42.770;23.400;2022-07-29T14:01:20;2.13;;;1.65;;
32196;SDS011;18697;42.770;23.400;2022-07-29T14:03:45;1.90;;;1.80;;
32196;SDS011;18697;42.770;23.400;2022-07-29T14:06:11;2.00;;;1.85;;
32196;SDS011;18697;42.770;23.400;2022-07-29T14:08:36;1.75;;;1.65;;
32196;SDS011;18697;42.770;23.400;2022-07-29T14:11:01;2.10;;;1.70;;
32196;SDS011;18697;42.770;23.400;2022-07-29T14:13:27;2.75;;;1.90;;
32196;SDS011;18697;42.770;23.400;2022-07-29T14:15:52;2.25;;;1.38;;
32196;SDS011;18697;42.770;23.400;2022-07-29T14:18:18;1.75;;;1.65;;
32196;SDS011;18697;42.770;23.400;2022-07-29T14:20:43;2.03;;;1.88;;
32196;SDS011;18697;42.770;23.400;2022-07-29T14:23:09;2.10;;;1.90;;
32196;SDS011;18697;42.770;23.400;2022-07-29T14:25:34;1.85;;;1.73;;
32196;SDS011;18697;42.770;23.400;2022-07-29T14:28:00;1.80;;;1.70;;
32196;SDS011;18697;42.770;23.400;2022-07-29T14:30:25;2.17;;;1.98;;
32196;SDS011;18697;42.770;23.400;2022-07-29T14:32:50;3.90;;;2.20;;
32196;SDS011;18697;42.770;23.400;2022-07-29T14:35:16;2.85;;;2.20;;
32196;SDS011;18697;42.770;23.400;2022-07-29T14:37:41;3.00;;;2.25;;
32196;SDS011;18697;42.770;23.400;2022-07-29T14:40:07;5.50;;;3.28;;
32196;SDS011;18697;42.770;23.400;2022-07-29T14:42:34;3.20;;;2.17;;
32196;SDS011;18697;42.770;23.400;2022-07-29T14:45:01;1.80;;;1.70;;
32196;SDS011;18697;42.770;23.400;2022-07-29T14:47:26;2.80;;;2.05;;
32196;SDS011;18697;42.770;23.400;2022-07-29T14:49:51;2.90;;;2.17;;
32196;SDS011;18697;42.770;23.400;2022-07-29T14:52:17;2.53;;;2.20;;
32196;SDS011;18697;42.770;23.400;2022-07-29T14:54:42;7.57;;;3.03;;
32196;SDS011;18697;42.770;23.400;2022-07-29T14:57:08;3.38;;;2.63;;
32196;SDS011;18697;42.770;23.400;2022-07-29T14:59:33;3.33;;;2.80;;
32196;SDS011;18697;42.770;23.400;2022-07-29T15:01:59;6.13;;;4.68;;
32196;SDS011;18697;42.770;23.400;2022-07-29T15:04:24;4.07;;;2.78;;
32196;SDS011;18697;42.770;23.400;2022-07-29T15:06:50;2.47;;;2.28;;
32196;SDS011;18697;42.770;23.400;2022-07-29T15:09:16;1.73;;;1.63;;
32196;SDS011;18697;42.770;23.400;2022-07-29T15:11:42;2.45;;;1.92;;
32196;SDS011;18697;42.770;23.400;2022-07-29T15:14:08;2.88;;;2.65;;
32196;SDS011;18697;42.770;23.400;2022-07-29T15:16:37;2.00;;;1.58;;
32196;SDS011;18697;42.770;23.400;2022-07-29T15:19:04;1.98;;;1.60;;
32196;SDS011;18697;42.770;23.400;2022-07-29T15:21:30;1.70;;;1.60;;
32196;SDS011;18697;42.770;23.400;2022-07-29T15:23:55;2.15;;;1.40;;
32196;SDS011;18697;42.770;23.400;2022-07-29T15:26:21;2.10;;;1.90;;
32196;SDS011;18697;42.770;23.400;2022-07-29T15:28:46;2.58;;;1.95;;
32196;SDS011;18697;42.770;23.400;2022-07-29T15:31:12;1.70;;;1.60;;
32196;SDS011;18697;42.770;23.400;2022-07-29T15:33:37;1.95;;;1.73;;